Time;durP1;ratioP1;P1;durP2;ratioP2;P2;SDS_P1;SDS_P2;PMS_P1;PMS_P2;Temp;Humidity;BMP_temperature;BMP_pressure;BME280_temperature;BME280_humidity;BME280_pressure;Samples;Min_cycle;Max_cycle;Signal;HPM_P1;HPM_P2
2023/08/09 00:00:33;;;;;;;3.55;1.38;;;;;;;-145.69;61.34;52032.47;5093310;28;20202;-83
2023/08/09 00:03:00;;;;;;;1.83;1.48;;;;;;;-145.69;60.93;52004.75;5093471;28;20209;-83
2023/08/09 00:05:27;;;;;;;2.72;1.33;;;;;;;-145.69;60.66;52036.44;5091954;28;20222;-82
2023/08/09 00:07:54;;;;;;;2.67;1.38;;;;;;;-145.69;60.59;52044.38;5093107;28;20198;-83
2023/08/09 00:10:21;;;;;;;1.55;1.27;;;;;;;-145.69;60.14;52038.44;5092980;28;20202;-83
2023/08/09 00:12:49;;;;;;;2.28;1.58;;;;;;;-145.69;59.93;52024.56;5093056;28;20259;-83
2023/08/09 00:15:16;;;;;;;2.95;1.40;;;;;;;-145.69;60.41;52030.50;5093064;28;20232;-83
2023/08/09 00:17:42;;;;;;;1.73;1.27;;;;;;;-145.69;60.44;52036.44;5092897;28;20550;-84
2023/08/09 00:20:11;;;;;;;3.15;1.50;;;;;;;-145.69;60.89;52044.38;5095996;28;20668;-84
2023/08/09 00:22:38;;;;;;;3.65;1.30;;;;;;;-145.69;61.80;52016.66;5096006;28;20587;-84
2023/08/09 00:25:05;;;;;;;3.40;1.33;;;;;;;-145.69;62.47;52048.31;5096869;28;20596;-84
2023/08/09 00:27:32;;;;;;;4.57;1.25;;;;;;;-145.69;63.32;52052.28;5096680;28;20652;-84
2023/08/09 00:29:59;;;;;;;2.00;1.35;;;;;;;-145.69;62.83;52016.66;5097032;28;20190;-84
2023/08/09 00:32:26;;;;;;;1.50;1.15;;;;;;;-145.69;63.11;52032.47;5096875;28;20657;-84
2023/08/09 00:34:52;;;;;;;3.00;1.30;;;;;;;-145.69;62.19;52012.69;5096265;28;20201;-84
2023/08/09 00:37:19;;;;;;;1.92;1.20;;;;;;;-145.69;62.97;51988.91;5096469;28;20206;-84
2023/08/09 00:39:46;;;;;;;4.85;1.45;;;;;;;-145.69;62.89;52048.31;5096625;28;20810;-83
2023/08/09 00:42:12;;;;;;;4.07;1.60;;;;;;;-145.69;63.75;52030.50;5095913;28;20228;-84
2023/08/09 00:44:39;;;;;;;1.65;1.23;;;;;;;-145.69;65.30;52032.47;5096616;28;20560;-84
2023/08/09 00:47:09;;;;;;;5.47;1.15;;;;;;;-145.69;64.71;52060.22;5096277;28;20206;-84
2023/08/09 00:49:36;;;;;;;5.72;1.45;;;;;;;-145.69;66.41;52048.31;5096760;28;20202;-85
2023/08/09 00:52:03;;;;;;;2.63;1.20;;;;;;;-145.69;66.46;52016.66;5095637;28;20237;-84
2023/08/09 00:54:30;;;;;;;1.92;1.23;;;;;;;-145.69;66.31;52050.31;5096161;28;20205;-84
2023/08/09 00:56:57;;;;;;;2.40;1.20;;;;;;;-145.69;66.66;52030.50;5096249;28;20186;-84
2023/08/09 00:59:24;;;;;;;2.30;1.20;;;;;;;-145.69;67.31;52028.53;5096524;28;20201;-84
2023/08/09 01:01:50;;;;;;;4.60;1.45;;;;;;;-145.69;66.99;52036.44;5096573;28;20553;-83
2023/08/09 01:04:18;;;;;;;2.17;1.55;;;;;;;-145.69;67.25;52048.31;5096125;28;20202;-83
2023/08/09 01:06:55;;;;;;;4.80;1.60;;;;;;;-145.69;67.64;52036.44;5095689;28;20585;-83
2023/08/09 01:09:31;;;;;;;3.80;1.50;;;;;;;-145.69;67.53;52024.56;5096425;28;20557;-84
2023/08/09 01:12:02;;;;;;;1.92;1.50;;;;;;;-145.69;68.22;52054.25;5095674;28;20201;-83
2023/08/09 01:14:32;;;;;;;2.70;1.40;;;;;;;-145.69;70.44;52040.41;5092685;28;20441;-84
2023/08/09 01:17:01;;;;;;;3.60;1.45;;;;;;;-145.69;69.64;52030.50;5095249;28;20268;-83
2023/08/09 01:19:39;;;;;;;2.05;1.25;;;;;;;-145.69;68.40;52056.25;5095616;28;20202;-84
2023/08/09 01:22:08;;;;;;;4.72;1.30;;;;;;;-145.69;69.29;52044.38;5095354;28;20206;-83
2023/08/09 01:24:36;;;;;;;4.68;1.45;;;;;;;-145.69;69.61;52068.13;5095878;28;20549;-84
2023/08/09 01:27:03;;;;;;;7.00;1.88;;;;;;;-145.69;69.24;52020.59;5095565;28;20205;-84
2023/08/09 01:29:29;;;;;;;4.82;1.60;;;;;;;-145.69;69.47;52026.53;5095342;28;20194;-83
2023/08/09 01:31:56;;;;;;;2.22;1.40;;;;;;;-145.69;68.77;52044.38;5095514;28;20202;-84
2023/08/09 01:34:23;;;;;;;1.90;1.50;;;;;;;-145.69;68.79;52052.28;5095843;28;20213;-83
2023/08/09 01:36:51;;;;;;;2.00;1.30;;;;;;;-145.69;67.85;52052.28;5095458;28;20657;-84
2023/08/09 01:39:23;;;;;;;2.88;1.17;;;;;;;-145.69;66.73;52040.41;5095362;28;20208;-84
2023/08/09 01:41:52;;;;;;;4.68;1.48;;;;;;;-145.69;66.52;52044.38;5096112;28;20569;-83
2023/08/09 01:44:19;;;;;;;2.03;1.30;;;;;;;-145.69;67.35;52048.31;5097151;28;20194;-84
2023/08/09 01:46:46;;;;;;;2.30;1.50;;;;;;;-145.69;65.56;52024.56;5096372;28;20577;-84
2023/08/09 01:49:15;;;;;;;1.75;1.30;;;;;;;-145.69;64.72;52010.69;5096856;28;20213;-84
2023/08/09 01:51:42;;;;;;;2.83;1.30;;;;;;;-145.69;65.08;52032.47;5095801;28;20724;-84
2023/08/09 01:54:11;;;;;;;2.30;1.30;;;;;;;-145.69;66.66;52044.38;5095836;28;20198;-84
2023/08/09 01:56:37;;;;;;;2.15;1.38;;;;;;;-145.69;66.23;52022.59;5095440;28;20198;-84
2023/08/09 01:59:05;;;;;;;3.40;1.50;;;;;;;-145.69;65.98;52022.59;5094771;28;20205;-84
2023/08/09 02:01:32;;;;;;;3.67;1.50;;;;;;;-145.69;67.40;52040.41;5095433;28;20281;-84
2023/08/09 02:03:59;;;;;;;6.97;1.20;;;;;;;-145.69;67.80;52076.03;5094290;28;20701;-84
2023/08/09 02:06:25;;;;;;;2.30;1.40;;;;;;;-145.69;67.53;52048.31;5095377;28;20229;-84
2023/08/09 02:08:52;;;;;;;3.53;1.50;;;;;;;-145.69;67.85;52040.41;5095572;28;20649;-85
2023/08/09 02:11:18;;;;;;;1.30;1.10;;;;;;;-145.69;67.65;52028.53;5095247;28;20319;-85
2023/08/09 02:13:44;;;;;;;1.65;1.00;;;;;;;-145.69;68.05;52042.38;5095920;28;20202;-84
2023/08/09 02:16:12;;;;;;;2.40;1.30;;;;;;;-145.69;69.01;52012.69;5095432;28;20222;-85
2023/08/09 02:18:39;;;;;;;3.83;1.20;;;;;;;-145.69;70.13;52040.41;5095274;28;20560;-84
2023/08/09 02:21:05;;;;;;;1.88;1.30;;;;;;;-145.69;69.44;52030.50;5095253;28;20193;-84
2023/08/09 02:23:32;;;;;;;2.78;1.52;;;;;;;-145.69;68.22;52052.28;5095079;28;20534;-84
2023/08/09 02:25:58;;;;;;;1.23;1.13;;;;;;;-145.69;66.25;52064.16;5094956;28;20692;-85
2023/08/09 02:28:25;;;;;;;5.55;1.40;;;;;;;-145.69;65.92;52062.19;5094355;28;20573;-84
2023/08/09 02:30:53;;;;;;;2.08;1.33;;;;;;;-145.69;65.38;52032.47;5095400;28;20205;-83
2023/08/09 02:33:21;;;;;;;1.38;1.08;;;;;;;-145.69;66.14;52036.44;5093296;28;20718;-84
2023/08/09 02:35:54;;;;;;;2.10;1.20;;;;;;;-145.69;65.08;52018.63;5094489;28;20201;-83
2023/08/09 02:38:21;;;;;;;2.58;1.52;;;;;;;-145.69;65.46;52038.44;5092640;28;20534;-84
2023/08/09 02:40:49;;;;;;;4.82;1.52;;;;;;;-145.69;64.60;52054.25;5093078;28;20252;-84
2023/08/09 02:43:15;;;;;;;4.45;1.60;;;;;;;-145.69;64.55;52034.47;5094421;28;20294;-84
2023/08/09 02:45:42;;;;;;;3.67;1.55;;;;;;;-145.69;64.65;52040.41;5094595;28;20214;-84
2023/08/09 02:48:08;;;;;;;2.65;1.23;;;;;;;-145.69;64.22;52032.47;5095360;28;20194;-84
2023/08/09 02:50:37;;;;;;;2.05;1.42;;;;;;;-145.69;64.51;52024.56;5094439;28;20194;-83
2023/08/09 02:53:04;;;;;;;2.75;1.23;;;;;;;-145.69;64.65;52028.53;5094272;28;20194;-84
2023/08/09 02:55:31;;;;;;;1.95;1.23;;;;;;;-145.69;64.69;52056.25;5094246;28;20194;-84
2023/08/09 02:57:57;;;;;;;2.65;1.52;;;;;;;-145.69;64.78;52028.53;5094626;28;20206;-84
2023/08/09 03:00:24;;;;;;;5.03;1.50;;;;;;;-145.69;64.76;52068.13;5093642;28;20212;-84
2023/08/09 03:02:50;;;;;;;2.88;1.45;;;;;;;-145.69;64.79;52087.94;5094573;28;20201;-82
2023/08/09 03:05:17;;;;;;;2.03;1.40;;;;;;;-145.69;64.64;52060.22;5093745;28;20229;-84
2023/08/09 03:07:45;;;;;;;3.40;1.50;;;;;;;-145.69;65.29;52032.47;5090093;28;20209;-84
2023/08/09 03:10:11;;;;;;;5.28;1.60;;;;;;;-145.69;65.46;52016.66;5093535;28;20197;-83
2023/08/09 03:12:38;;;;;;;1.92;1.25;;;;;;;-145.69;65.21;52040.41;5093765;28;20209;-84
2023/08/09 03:15:06;;;;;;;3.35;1.63;;;;;;;-145.69;64.86;52028.53;5093402;28;20229;-85
2023/08/09 03:17:32;;;;;;;2.33;1.38;;;;;;;-145.69;65.61;52036.44;5093559;28;20217;-83
2023/08/09 03:19:59;;;;;;;3.28;1.48;;;;;;;-145.69;66.48;52020.59;5093846;28;20209;-83
2023/08/09 03:22:25;;;;;;;1.40;1.15;;;;;;;-145.69;66.96;52052.28;5093747;28;20213;-83
2023/08/09 03:24:53;;;;;;;3.45;1.60;;;;;;;-145.69;67.83;52054.25;5093095;28;20191;-82
2023/08/09 03:27:20;;;;;;;3.28;1.27;;;;;;;-145.69;68.00;52048.31;5093076;28;20688;-82
2023/08/09 03:29:46;;;;;;;1.77;1.27;;;;;;;-145.69;68.52;52083.97;5093178;28;20645;-83
2023/08/09 03:32:13;;;;;;;1.80;1.40;;;;;;;-145.69;68.01;52072.09;5093537;28;20202;-84
2023/08/09 03:34:39;;;;;;;1.42;1.05;;;;;;;-145.69;68.15;52042.38;5092095;28;20197;-84
2023/08/09 03:37:06;;;;;;;1.98;1.05;;;;;;;-145.69;68.20;52048.31;5093845;28;20213;-84
2023/08/09 03:39:32;;;;;;;7.43;1.30;;;;;;;-145.69;68.54;52040.41;5093296;28;20205;-83
2023/08/09 03:42:00;;;;;;;5.10;1.42;;;;;;;-145.69;68.20;52070.09;5093278;28;20202;-84
2023/08/09 03:44:26;;;;;;;2.63;1.30;;;;;;;-145.69;68.60;52060.22;5093207;28;20198;-84
2023/08/09 03:46:54;;;;;;;5.57;1.50;;;;;;;-145.69;68.03;52040.41;5093262;28;20702;-84
2023/08/09 03:49:20;;;;;;;1.45;1.27;;;;;;;-145.69;66.75;52068.13;5093312;28;20526;-84
2023/08/09 03:51:46;;;;;;;4.68;1.52;;;;;;;-145.69;68.00;52068.13;5093296;28;20594;-83
2023/08/09 03:54:13;;;;;;;6.65;1.27;;;;;;;-145.69;67.68;52068.13;5092745;28;20205;-83
2023/08/09 03:56:40;;;;;;;5.22;1.40;;;;;;;-145.69;67.63;52024.56;5092754;28;20198;-84
2023/08/09 03:59:08;;;;;;;3.75;1.23;;;;;;;-145.69;67.25;52052.28;5093027;28;20194;-83
2023/08/09 04:01:35;;;;;;;2.95;1.40;;;;;;;-145.69;68.85;52064.16;5092717;28;20449;-85
2023/08/09 04:04:03;;;;;;;1.77;1.20;;;;;;;-145.69;68.22;52028.53;5093163;28;20206;-83
2023/08/09 04:06:29;;;;;;;4.10;1.48;;;;;;;-145.69;68.42;52072.09;5092711;28;20259;-83
2023/08/09 04:08:56;;;;;;;2.15;1.15;;;;;;;-145.69;67.51;52060.22;5092871;28;20256;-84
2023/08/09 04:11:22;;;;;;;3.00;1.40;;;;;;;-145.69;67.86;52056.25;5092793;28;20657;-83
2023/08/09 04:13:49;;;;;;;3.85;1.20;;;;;;;-145.69;68.10;52056.25;5093283;28;20197;-83
2023/08/09 04:16:18;;;;;;;2.22;1.30;;;;;;;-145.69;67.73;52052.28;5092646;28;20245;-83
2023/08/09 04:18:44;;;;;;;1.85;1.20;;;;;;;-145.69;68.15;52070.09;5092366;28;20219;-83
2023/08/09 04:21:10;;;;;;;2.30;1.45;;;;;;;-145.69;67.87;52044.38;5092600;28;20202;-83
2023/08/09 04:23:37;;;;;;;2.67;1.40;;;;;;;-145.69;68.04;52044.38;5092754;28;20190;-84
2023/08/09 04:26:03;;;;;;;2.72;1.10;;;;;;;-145.69;67.99;52048.31;5092767;28;20222;-83
2023/08/09 04:28:30;;;;;;;4.28;1.38;;;;;;;-145.69;68.22;52014.66;5092871;28;20198;-84
2023/08/09 04:30:56;;;;;;;2.83;1.23;;;;;;;-145.69;68.57;52040.41;5092366;28;20653;-83
2023/08/09 04:33:24;;;;;;;3.90;1.30;;;;;;;-145.69;68.37;52048.31;5092938;28;20237;-84
2023/08/09 04:35:51;;;;;;;3.22;1.35;;;;;;;-145.69;68.25;52048.31;5092803;28;20241;-83
2023/08/09 04:38:17;;;;;;;2.97;1.15;;;;;;;-145.69;68.17;52078.03;5092752;28;20653;-84
2023/08/09 04:40:45;;;;;;;1.92;1.35;;;;;;;-145.69;68.02;52040.41;5092789;28;20198;-84
2023/08/09 04:43:13;;;;;;;4.78;1.35;;;;;;;-145.69;66.92;52040.41;5092346;28;20267;-84
2023/08/09 04:45:40;;;;;;;2.10;1.42;;;;;;;-145.69;65.61;52032.47;5092660;28;20190;-84
2023/08/09 04:48:07;;;;;;;1.70;1.10;;;;;;;-145.69;65.19;52064.16;5093000;28;20213;-84
2023/08/09 04:50:34;;;;;;;3.60;1.35;;;;;;;-145.69;64.85;52028.53;5092897;28;20218;-83
2023/08/09 04:53:01;;;;;;;2.08;1.17;;;;;;;-145.69;64.86;52048.31;5092780;28;20201;-84
2023/08/09 04:55:28;;;;;;;3.20;1.25;;;;;;;-145.69;64.86;52042.38;5092487;28;20248;-83
2023/08/09 04:57:54;;;;;;;2.50;1.45;;;;;;;-145.69;65.33;52048.31;5091421;28;20330;-84
2023/08/09 05:00:20;;;;;;;2.78;1.33;;;;;;;-145.69;65.57;52040.41;5092821;28;20213;-83
2023/08/09 05:02:47;;;;;;;7.35;1.55;;;;;;;-145.69;65.42;52042.38;5092236;28;20201;-83
2023/08/09 05:05:14;;;;;;;2.88;1.60;;;;;;;-145.69;65.43;52030.50;5094768;28;20205;-84
2023/08/09 05:07:42;;;;;;;3.55;1.20;;;;;;;-145.69;65.37;52030.50;5095826;28;20222;-83
2023/08/09 05:10:10;;;;;;;2.30;1.25;;;;;;;-145.69;65.89;52016.66;5096290;28;20556;-84
2023/08/09 05:12:36;;;;;;;2.72;1.25;;;;;;;-145.69;65.76;52026.53;5092101;28;20202;-83
2023/08/09 05:15:04;;;;;;;2.03;1.30;;;;;;;-145.69;65.79;52048.31;5096044;28;20233;-84
2023/08/09 05:17:30;;;;;;;2.63;1.35;;;;;;;-145.69;65.76;52060.22;5096230;28;20252;-84
2023/08/09 05:19:57;;;;;;;2.75;1.30;;;;;;;-145.69;65.38;52026.53;5096130;28;20205;-83
2023/08/09 05:22:24;;;;;;;1.98;1.02;;;;;;;-145.69;65.25;52054.25;5096200;28;20225;-84
2023/08/09 05:24:52;;;;;;;3.45;1.35;;;;;;;-145.69;64.99;52040.41;5095745;28;20201;-84
2023/08/09 05:27:18;;;;;;;1.45;1.10;;;;;;;-145.69;65.28;52038.44;5094128;28;20218;-83
2023/08/09 05:29:45;;;;;;;3.53;1.60;;;;;;;-145.69;65.26;52048.31;5095743;28;20661;-84
2023/08/09 05:32:11;;;;;;;2.72;1.20;;;;;;;-145.69;64.69;52022.59;5095986;28;20221;-84
2023/08/09 05:34:38;;;;;;;2.20;1.33;;;;;;;-145.69;65.16;52066.16;5095524;28;20198;-84
2023/08/09 05:37:05;;;;;;;3.72;1.40;;;;;;;-145.69;65.98;52040.41;5095604;28;20205;-83
2023/08/09 05:39:32;;;;;;;3.20;1.73;;;;;;;-145.69;66.39;52046.34;5095465;28;20591;-84
2023/08/09 05:41:59;;;;;;;1.52;1.33;;;;;;;-145.69;66.11;52036.44;5095264;28;20225;-84
2023/08/09 05:44:26;;;;;;;3.50;1.30;;;;;;;-145.69;66.55;52040.41;5095611;28;20199;-83
2023/08/09 05:46:53;;;;;;;4.30;1.40;;;;;;;-145.69;66.24;52052.28;5095291;28;20217;-83
2023/08/09 05:49:19;;;;;;;2.40;1.35;;;;;;;-145.69;66.21;52016.66;5095370;28;20243;-83
2023/08/09 05:51:46;;;;;;;2.25;1.20;;;;;;;-145.69;66.13;52050.31;5095251;28;20206;-84
2023/08/09 05:54:13;;;;;;;2.17;1.20;;;;;;;-145.69;66.06;52044.38;5095285;28;20564;-83
2023/08/09 05:56:39;;;;;;;1.52;1.13;;;;;;;-145.69;66.01;52024.56;5094962;28;20611;-84
2023/08/09 05:59:07;;;;;;;6.20;1.30;;;;;;;-145.69;65.72;52018.63;5095097;28;20580;-84
2023/08/09 06:01:34;;;;;;;2.60;1.30;;;;;;;-145.69;66.03;52048.31;5095087;28;20233;-84
2023/08/09 06:04:00;;;;;;;2.92;1.33;;;;;;;-145.69;66.16;52052.28;5094867;28;20213;-84
2023/08/09 06:06:27;;;;;;;9.30;1.20;;;;;;;-145.69;65.52;52028.53;5094417;28;20748;-84
2023/08/09 06:08:53;;;;;;;2.00;1.17;;;;;;;-145.69;65.46;52040.41;5094343;28;20205;-84
2023/08/09 06:11:20;;;;;;;3.88;1.30;;;;;;;-145.69;65.17;52044.38;5094718;28;20252;-84
2023/08/09 06:13:46;;;;;;;1.90;1.30;;;;;;;-145.69;64.40;52044.38;5094756;28;20245;-84
2023/08/09 06:16:14;;;;;;;5.80;1.70;;;;;;;-145.69;63.64;52066.16;5093848;28;20225;-84
2023/08/09 06:18:41;;;;;;;2.83;1.30;;;;;;;-145.69;62.18;52008.72;5094582;28;20657;-85
2023/08/09 06:21:08;;;;;;;2.90;1.23;;;;;;;-145.69;61.86;52024.56;5094709;28;20717;-84
2023/08/09 06:23:34;;;;;;;2.20;1.40;;;;;;;-145.69;61.40;52018.63;5094851;28;20194;-84
2023/08/09 06:26:01;;;;;;;5.88;1.48;;;;;;;-145.69;60.32;51992.88;5094597;28;20190;-84
2023/08/09 06:28:27;;;;;;;3.90;1.25;;;;;;;-145.69;58.87;52048.31;5094001;28;20248;-84
2023/08/09 06:30:54;;;;;;;4.28;1.20;;;;;;;-145.69;57.32;52016.66;5094508;28;20193;-85
2023/08/09 06:33:22;;;;;;;3.17;1.35;;;;;;;-145.69;55.22;52000.81;5094446;28;20205;-85
2023/08/09 06:35:48;;;;;;;1.77;1.00;;;;;;;-145.69;55.63;52000.81;5093966;28;20198;-84
2023/08/09 06:38:15;;;;;;;4.32;1.00;;;;;;;-145.69;54.96;52010.69;5094489;28;20237;-84
2023/08/09 06:40:41;;;;;;;2.58;1.15;;;;;;;-145.69;55.06;52010.69;5094174;28;20683;-84
2023/08/09 06:43:07;;;;;;;3.85;1.20;;;;;;;-145.69;55.21;52022.59;5094136;28;20202;-84
2023/08/09 06:45:34;;;;;;;2.40;1.20;;;;;;;-145.69;54.51;52012.69;5094345;28;20209;-85
2023/08/09 06:48:01;;;;;;;2.67;1.20;;;;;;;-145.69;53.84;51988.91;5094160;28;20275;-84
2023/08/09 06:50:29;;;;;;;1.48;0.95;;;;;;;-145.69;52.91;52008.72;5094106;28;20201;-84
2023/08/09 06:52:56;;;;;;;2.80;1.33;;;;;;;-145.69;52.70;52024.56;5094113;28;20281;-84
2023/08/09 06:55:22;;;;;;;5.43;1.20;;;;;;;-145.69;51.30;52020.59;5094070;28;20220;-84
2023/08/09 06:57:49;;;;;;;2.60;1.40;;;;;;;-145.69;51.34;52006.75;5093469;28;20561;-84
2023/08/09 07:00:17;;;;;;;1.67;0.80;;;;;;;-145.69;50.49;51982.97;5094214;28;20202;-85
2023/08/09 07:02:45;;;;;;;4.53;1.02;;;;;;;-145.69;50.01;51992.88;5093700;28;20194;-84
2023/08/09 07:05:15;;;;;;;1.90;1.08;;;;;;;-145.69;48.94;51973.06;5093728;28;20194;-84
2023/08/09 07:07:44;;;;;;;2.65;1.17;;;;;;;-145.69;48.34;51965.16;5093872;28;20222;-85
2023/08/09 07:10:11;;;;;;;4.40;1.20;;;;;;;-145.69;47.86;51984.97;5093877;28;20252;-85
2023/08/09 07:12:38;;;;;;;3.03;1.13;;;;;;;-145.69;47.02;52016.66;5093927;28;20205;-84
2023/08/09 07:15:08;;;;;;;1.63;1.10;;;;;;;-145.69;46.53;51977.03;5093701;28;20230;-84
2023/08/09 07:17:34;;;;;;;3.63;1.35;;;;;;;-145.69;46.84;52000.81;5090526;28;20225;-84
2023/08/09 07:20:01;;;;;;;3.30;1.20;;;;;;;-145.69;46.70;51982.97;5093559;28;20205;-83
2023/08/09 07:22:27;;;;;;;2.35;1.20;;;;;;;-145.69;46.56;51959.22;5094096;28;20205;-84
2023/08/09 07:24:55;;;;;;;1.55;1.10;;;;;;;-145.69;45.77;51949.31;5094661;28;20546;-85
2023/08/09 07:27:22;;;;;;;1.63;0.93;;;;;;;-145.69;45.42;51949.31;5093716;28;20561;-84
2023/08/09 07:29:48;;;;;;;1.33;1.00;;;;;;;-145.69;44.80;51949.31;5094368;28;20217;-83
2023/08/09 07:32:15;;;;;;;4.07;1.33;;;;;;;-145.69;43.78;51953.28;5093935;28;20209;-84
2023/08/09 07:34:41;;;;;;;1.90;0.88;;;;;;;-145.69;43.23;51941.41;5093917;28;20190;-83
2023/08/09 07:37:08;;;;;;;2.22;1.05;;;;;;;-145.69;43.13;51961.19;5094247;28;20213;-84
2023/08/09 07:39:34;;;;;;;2.65;1.10;;;;;;;-145.69;42.72;51941.41;5093957;28;20213;-83
2023/08/09 07:42:02;;;;;;;1.50;1.00;;;;;;;-145.69;42.03;51957.25;5093456;28;20292;-84
2023/08/09 07:44:29;;;;;;;1.98;1.05;;;;;;;-145.69;42.02;51973.06;5093143;28;20679;-81
2023/08/09 07:46:55;;;;;;;1.23;1.05;;;;;;;-145.69;41.85;51939.41;5093491;28;20217;-83
2023/08/09 07:49:21;;;;;;;3.03;0.80;;;;;;;-145.69;42.15;51939.41;5093704;28;20601;-85
2023/08/09 07:51:48;;;;;;;4.82;0.90;;;;;;;-145.69;42.11;51937.44;5093237;28;20213;-84
2023/08/09 07:54:14;;;;;;;4.32;1.15;;;;;;;-145.69;41.99;51945.34;5092935;28;20198;-84
2023/08/09 07:56:41;;;;;;;4.57;1.00;;;;;;;-145.69;43.25;51933.47;5092788;28;20194;-85
2023/08/09 07:59:09;;;;;;;2.47;1.25;;;;;;;-145.69;43.25;51961.19;5093041;28;20201;-84
2023/08/09 08:01:36;;;;;;;1.48;1.00;;;;;;;-145.69;42.74;51945.34;5093349;28;20694;-84
2023/08/09 08:04:02;;;;;;;1.80;1.02;;;;;;;-145.69;43.57;51965.16;5093324;28;20194;-83
2023/08/09 08:06:29;;;;;;;3.63;1.20;;;;;;;-145.69;43.24;51971.09;5093224;28;20204;-84
2023/08/09 08:08:57;;;;;;;4.47;1.20;;;;;;;-145.69;43.68;51965.16;5093202;28;20230;-83
2023/08/09 08:11:24;;;;;;;3.47;0.93;;;;;;;-145.69;44.12;51961.19;5092798;28;20275;-83
2023/08/09 08:13:50;;;;;;;3.47;1.10;;;;;;;-145.69;43.51;51943.38;5092442;28;20205;-83
2023/08/09 08:16:20;;;;;;;2.75;1.10;;;;;;;-145.69;43.91;51957.25;5092427;28;20234;-83
2023/08/09 08:18:46;;;;;;;2.63;1.20;;;;;;;-145.69;43.33;51953.28;5092817;28;20617;-84
2023/08/09 08:21:12;;;;;;;3.67;1.20;;;;;;;-145.69;43.19;51935.47;5092746;28;20425;-84
2023/08/09 08:23:39;;;;;;;3.65;1.05;;;;;;;-145.69;42.64;51921.59;5092818;28;20202;-83
2023/08/09 08:26:06;;;;;;;2.30;1.02;;;;;;;-145.69;42.64;51951.28;5092578;28;20201;-83
2023/08/09 08:28:32;;;;;;;2.20;1.15;;;;;;;-145.69;42.45;51893.88;5092584;28;20306;-81
2023/08/09 08:31:04;;;;;;;2.53;0.95;;;;;;;-145.69;41.92;51899.81;5092672;28;20201;-81
2023/08/09 08:33:32;;;;;;;2.45;1.10;;;;;;;-145.69;40.53;51893.88;5092522;28;20190;-83
2023/08/09 08:35:59;;;;;;;3.72;1.10;;;;;;;-145.69;40.20;51937.44;5092931;28;20198;-84
2023/08/09 08:38:25;;;;;;;2.35;1.00;;;;;;;-145.69;40.45;51913.69;5092340;28;20281;-83
2023/08/09 08:40:54;;;;;;;1.88;0.98;;;;;;;-145.69;40.24;51905.75;5095717;28;20194;-86
2023/08/09 08:43:21;;;;;;;2.92;1.10;;;;;;;-145.69;39.31;51897.84;5096485;28;20653;-84
2023/08/09 08:45:48;;;;;;;2.83;1.15;;;;;;;-145.69;39.45;51909.72;5096563;28;20290;-84
2023/08/09 08:48:15;;;;;;;2.50;1.08;;;;;;;-145.69;39.60;51889.91;5096522;28;20275;-83
2023/08/09 08:50:44;;;;;;;2.92;1.05;;;;;;;-145.69;39.82;51880.00;5096727;28;20206;-83
2023/08/09 08:53:12;;;;;;;1.10;0.85;;;;;;;-145.69;39.46;51870.13;5096344;28;20199;-83
2023/08/09 08:55:39;;;;;;;2.85;0.93;;;;;;;-145.69;39.50;51874.06;5096334;28;20233;-85
2023/08/09 08:58:06;;;;;;;3.60;1.23;;;;;;;-145.69;39.08;51895.84;5096370;28;20252;-83
2023/08/09 09:00:32;;;;;;;3.17;1.00;;;;;;;-145.69;39.18;51874.06;5096147;28;20667;-84
2023/08/09 09:02:59;;;;;;;2.92;1.20;;;;;;;-145.69;39.69;51862.19;5096408;28;20214;-85
2023/08/09 09:05:26;;;;;;;2.22;1.15;;;;;;;-145.69;39.60;51874.06;5096487;28;20209;-85
2023/08/09 09:07:56;;;;;;;1.67;1.00;;;;;;;-145.69;39.70;51889.91;5095917;28;20214;-86
2023/08/09 09:10:24;;;;;;;1.98;0.85;;;;;;;-145.69;39.54;51882.00;5096588;28;20198;-85
2023/08/09 09:12:51;;;;;;;5.40;1.05;;;;;;;-145.69;39.27;51907.72;5096054;28;20205;-84
2023/08/09 09:15:18;;;;;;;2.03;0.98;;;;;;;-145.69;39.44;51893.88;5095884;28;20226;-85
2023/08/09 09:17:45;;;;;;;1.83;1.00;;;;;;;-145.69;40.26;51901.78;5095966;28;20205;-85
2023/08/09 09:20:18;;;;;;;2.63;1.25;;;;;;;-145.69;40.08;51911.69;5095815;28;20636;-85
2023/08/09 09:22:44;;;;;;;2.38;0.98;;;;;;;-145.69;40.65;51891.88;5091075;28;20293;-85
2023/08/09 09:25:12;;;;;;;5.28;1.08;;;;;;;-145.69;40.52;51899.81;5075934;28;20218;-84
2023/08/09 09:27:41;;;;;;;5.03;1.10;;;;;;;-145.69;40.96;51899.81;5086832;28;20260;-85
2023/08/09 09:30:13;;;;;;;3.60;1.10;;;;;;;-145.69;41.23;51905.75;5096427;28;20247;-85
2023/08/09 09:32:41;;;;;;;2.53;1.20;;;;;;;-145.69;41.08;51887.94;5096268;28;20545;-86
2023/08/09 09:35:11;;;;;;;3.13;1.10;;;;;;;-145.69;40.98;51889.91;5095456;28;20652;-83
2023/08/09 09:37:37;;;;;;;3.88;1.55;;;;;;;-145.69;40.88;51883.97;5095708;28;20668;-84
2023/08/09 09:40:10;;;;;;;3.15;1.23;;;;;;;-145.69;39.02;51872.09;5095592;28;20190;-83
2023/08/09 09:42:38;;;;;;;2.22;1.20;;;;;;;-145.69;39.14;51850.31;5094866;28;20204;-84
2023/08/09 09:45:07;;;;;;;10.63;1.10;;;;;;;-145.69;39.62;51895.84;5095392;28;20213;-84
2023/08/09 09:47:37;;;;;;;3.60;1.38;;;;;;;-145.69;39.48;51864.16;5094590;28;20201;-83
2023/08/09 09:50:07;;;;;;;4.97;1.40;;;;;;;-145.69;40.26;51899.81;5095231;28;20210;-83
2023/08/09 09:52:36;;;;;;;5.63;1.23;;;;;;;-145.69;39.97;51866.16;5095427;28;20218;-84
2023/08/09 09:55:03;;;;;;;1.90;1.20;;;;;;;-145.69;40.11;51899.81;5094281;28;20209;-85
2023/08/09 09:57:29;;;;;;;5.28;1.10;;;;;;;-145.69;40.02;51909.72;5073568;28;20249;-83
2023/08/09 10:00:00;;;;;;;4.43;1.10;;;;;;;-145.69;40.91;51905.75;5091559;28;20221;-84
2023/08/09 10:02:33;;;;;;;1.73;1.10;;;;;;;-145.69;40.60;51885.94;5095012;28;20202;-84
2023/08/09 10:05:03;;;;;;;2.30;1.17;;;;;;;-145.69;40.22;51862.19;5095268;28;20217;-84
2023/08/09 10:07:32;;;;;;;2.05;1.00;;;;;;;-145.69;40.41;51925.56;5093752;28;20194;-85
2023/08/09 10:10:02;;;;;;;1.65;1.10;;;;;;;-145.69;39.50;51883.97;5094540;28;20190;-86
2023/08/09 10:12:33;;;;;;;1.95;0.93;;;;;;;-145.69;39.42;51862.19;5094872;28;20202;-85
2023/08/09 10:15:03;;;;;;;1.25;1.10;;;;;;;-145.69;38.92;51883.97;5095088;28;20230;-85
2023/08/09 10:17:33;;;;;;;6.78;1.50;;;;;;;-145.69;37.78;51880.00;5094177;28;20209;-84
2023/08/09 10:20:07;;;;;;;2.75;1.10;;;;;;;-145.69;37.75;51858.22;5094859;28;20202;-84
2023/08/09 10:22:33;;;;;;;4.38;1.02;;;;;;;-145.69;38.18;51852.28;5094661;28;20232;-85
2023/08/09 10:25:00;;;;;;;3.35;1.10;;;;;;;-145.69;38.75;51913.69;5093412;28;20243;-83
2023/08/09 10:27:49;;;;;;;1.88;1.08;;;;;;;-145.69;37.76;51852.28;5093713;28;20261;-84
2023/08/09 10:30:17;;;;;;;2.17;1.08;;;;;;;-145.69;38.24;51850.31;5094826;28;20232;-85
2023/08/09 10:32:51;;;;;;;4.65;1.40;;;;;;;-145.69;38.13;51850.31;5094708;28;20549;-82
2023/08/09 10:35:20;;;;;;;1.63;1.08;;;;;;;-145.69;37.94;51870.13;5094490;28;20204;-83
2023/08/09 10:37:47;;;;;;;4.95;1.25;;;;;;;-145.69;38.34;51858.22;5094258;28;20206;-83
2023/08/09 10:40:16;;;;;;;3.85;1.08;;;;;;;-145.69;38.35;51860.22;5094378;28;20572;-84
2023/08/09 10:42:46;;;;;;;2.30;1.05;;;;;;;-145.69;37.58;51854.28;5094204;28;20218;-83
2023/08/09 10:45:14;;;;;;;6.15;1.33;;;;;;;-145.69;38.30;51846.34;5094059;28;20194;-83
2023/08/09 10:47:42;;;;;;;3.47;1.10;;;;;;;-145.69;37.99;51856.25;5092908;28;20198;-84
2023/08/09 10:50:14;;;;;;;2.72;1.20;;;;;;;-145.69;38.26;51878.03;5093634;28;20206;-84
2023/08/09 10:52:47;;;;;;;2.00;0.90;;;;;;;-145.69;37.52;51846.34;5092887;28;20197;-83
2023/08/09 10:55:38;;;;;;;2.80;1.30;;;;;;;-145.69;37.95;51854.28;5093663;28;20645;-83
2023/08/09 10:58:04;;;;;;;1.95;1.30;;;;;;;-145.69;38.45;51866.16;5093434;28;20194;-84
2023/08/09 11:00:41;;;;;;;2.13;0.93;;;;;;;-145.69;37.86;51862.19;5093244;28;20267;-84
2023/08/09 11:03:11;;;;;;;2.42;1.10;;;;;;;-145.69;38.30;51895.84;5093472;28;20205;-84
2023/08/09 11:05:38;;;;;;;4.32;1.15;;;;;;;-145.69;39.13;51878.03;5093711;28;20194;-84
2023/08/09 11:08:19;;;;;;;2.15;0.93;;;;;;;-145.69;39.12;51848.34;5093741;28;20263;-85
2023/08/09 11:10:48;;;;;;;1.60;1.08;;;;;;;-145.69;38.99;51834.47;5093035;28;20198;-84
2023/08/09 11:13:17;;;;;;;3.33;1.00;;;;;;;-145.69;38.58;51860.22;5093515;28;20199;-84
2023/08/09 11:15:46;;;;;;;2.08;1.00;;;;;;;-145.69;38.19;51836.44;5089507;28;20302;-85
2023/08/09 11:18:15;;;;;;;3.25;1.10;;;;;;;-145.69;37.80;51866.16;5093642;28;20236;-85